Time;durP1;ratioP1;P1;durP2;ratioP2;P2;SDS_P1;SDS_P2;PMS_P1;PMS_P2;Temp;Humidity;BMP_temperature;BMP_pressure;BME280_temperature;BME280_humidity;BME280_pressure;Samples;Min_cycle;Max_cycle;Signal;HPM_P1;HPM_P2
2021/12/10 00:45:08;;;;;;;;;;;;;;;;;;;;;
2021/12/10 03:47:49;;;;;;;;;1.00;1.00;;;;;18.31;49.73;98148.63;6049456;23;45226;-76
2021/12/10 03:50:22;;;;;;;;;1.00;1.00;;;;;18.36;50.03;98155.31;6091519;23;45792;-75
2021/12/10 03:52:47;;;;;;;;;2.75;2.75;;;;;18.44;50.09;98146.91;6127186;22;45412;-75
2021/12/10 03:55:14;;;;;;;;;0.25;0.25;;;;;18.48;50.14;98156.31;6250480;22;45352;-75
2021/12/10 03:57:39;;;;;;;;;3.50;1.00;;;;;18.53;49.86;98158.66;6249934;22;46080;-75
2021/12/10 04:00:05;;;;;;;;;1.75;1.75;;;;;18.55;50.07;98168.19;6224406;22;66852;-75
2021/12/10 04:02:31;;;;;;;;;1.25;1.25;;;;;18.56;50.39;98171.66;6250414;22;45390;-75
2021/12/10 04:04:56;;;;;;;;;2.00;2.00;;;;;18.59;50.13;98164.41;6250239;22;48590;-75
2021/12/10 04:07:24;;;;;;;;;2.75;1.50;;;;;18.61;50.23;98161.66;6223110;22;76495;-75
2021/12/10 04:09:49;;;;;;;;;1.25;1.25;;;;;18.62;50.20;98161.56;6276848;22;45350;-75
2021/12/10 04:12:15;;;;;;;;;1.25;1.25;;;;;18.67;50.00;98165.72;6348953;22;58686;-75
2021/12/10 04:14:41;;;;;;;;;2.00;1.25;;;;;18.69;49.93;98169.13;6349268;22;45319;-75
2021/12/10 04:17:07;;;;;;;;;2.75;1.50;;;;;18.69;50.40;98163.84;6349390;22;46187;-75
2021/12/10 04:19:33;;;;;;;;;0.75;0.75;;;;;18.74;49.94;98172.28;6349652;22;45215;-75
2021/12/10 04:21:59;;;;;;;;;0.50;0.50;;;;;18.76;49.78;98162.47;6388240;22;45269;-75
2021/12/10 04:24:28;;;;;;;;;1.00;1.00;;;;;18.77;50.03;98170.31;6377398;22;45258;-75
2021/12/10 04:26:54;;;;;;;;;3.50;1.50;;;;;18.80;49.74;98174.56;6403509;22;45254;-75
2021/12/10 04:29:22;;;;;;;;;2.50;0.50;;;;;18.81;50.24;98163.88;6350192;22;45807;-75
2021/12/10 04:31:49;;;;;;;;;1.75;1.75;;;;;18.84;50.05;98168.09;6404118;22;45343;-75
2021/12/10 04:34:15;;;;;;;;;1.00;1.00;;;;;18.84;50.00;98170.75;6403915;22;45463;-75
2021/12/10 04:36:40;;;;;;;;;1.50;1.50;;;;;18.87;50.24;98175.84;6376929;22;47003;-75
2021/12/10 04:39:05;;;;;;;;;3.50;2.50;;;;;18.87;49.69;98175.84;6402937;22;67177;-75
2021/12/10 04:41:31;;;;;;;;;1.75;1.75;;;;;18.82;50.13;98176.13;6376959;22;45215;-74
2021/12/10 04:43:56;;;;;;;;;3.75;1.25;;;;;18.88;50.23;98174.91;6405471;22;45551;-75
2021/12/10 04:46:22;;;;;;;;;2.75;2.75;;;;;18.90;50.14;98188.84;6405047;22;60993;-75
2021/12/10 04:48:57;;;;;;;;;1.75;1.50;;;;;18.89;50.01;98184.53;6404839;22;67414;-75
2021/12/10 04:51:24;;;;;;;;;2.00;1.75;;;;;18.90;50.02;98197.63;6377373;22;45306;-75
2021/12/10 04:53:50;;;;;;;;;2.00;2.00;;;;;18.92;49.69;98197.53;6403945;22;45312;-75
2021/12/10 04:56:16;;;;;;;;;3.00;1.25;;;;;18.92;49.51;98194.88;6403217;22;45411;-74
2021/12/10 04:58:41;;;;;;;;;1.75;1.75;;;;;18.92;50.02;98192.22;6404334;22;45190;-75
2021/12/10 05:01:06;;;;;;;;;2.00;1.50;;;;;18.92;49.82;98185.16;6403149;22;45440;-75
2021/12/10 05:03:32;;;;;;;;;0.75;0.75;;;;;18.96;50.07;98198.19;6404106;22;45165;-75
2021/12/10 05:06:02;;;;;;;;;1.00;1.00;;;;;18.99;50.30;98197.97;6403758;22;45124;-75
2021/12/10 05:08:28;;;;;;;;;2.00;1.75;;;;;18.99;49.49;98201.47;6377794;22;45289;-75
2021/12/10 05:10:53;;;;;;;;;3.75;2.50;;;;;19.00;49.67;98197.88;6405784;22;45382;-74
2021/12/10 05:13:20;;;;;;;;;3.25;1.00;;;;;19.03;49.57;98204.78;6375849;22;67377;-75
2021/12/10 05:15:53;;;;;;;;;3.00;2.00;;;;;19.05;49.78;98210.81;6377030;22;46284;-75
2021/12/10 05:18:18;;;;;;;;;2.00;1.00;;;;;19.05;49.19;98216.94;6403815;22;45298;-75
2021/12/10 05:20:48;;;;;;;;;0.75;0.75;;;;;19.07;49.25;98224.75;6405885;22;45419;-75
2021/12/10 05:23:14;;;;;;;;;3.00;1.75;;;;;19.07;49.30;98228.25;6404644;22;45206;-75
2021/12/10 05:25:40;;;;;;;;;2.00;1.75;;;;;19.11;49.75;98232.41;6405037;22;46216;-75
2021/12/10 05:28:05;;;;;;;;;3.00;2.00;;;;;19.14;48.87;98237.47;6403049;22;45348;-75
2021/12/10 05:30:31;;;;;;;;;2.00;0.75;;;;;19.16;48.70;98232.09;6404841;22;53733;-75
2021/12/10 05:32:57;;;;;;;;;3.75;2.00;;;;;19.16;49.18;98235.56;6405196;22;45327;-75
2021/12/10 05:35:22;;;;;;;;;1.25;1.25;;;;;19.18;48.97;98241.59;6403354;22;46980;-75
2021/12/10 05:37:48;;;;;;;;;1.75;1.00;;;;;19.22;48.43;98244.91;6404611;22;45194;-74
2021/12/10 05:40:14;;;;;;;;;3.25;1.00;;;;;19.22;48.33;98258.13;6406085;22;45368;-75
2021/12/10 05:42:41;;;;;;;;;2.00;2.00;;;;;19.23;49.09;98261.63;6376936;22;45304;-75
2021/12/10 05:45:06;;;;;;;;;3.25;2.00;;;;;19.25;48.54;98263.22;6403769;22;46158;-75
2021/12/10 05:47:32;;;;;;;;;2.00;2.00;;;;;19.23;48.75;98262.47;6404639;22;45147;-75
2021/12/10 05:49:57;;;;;;;;;1.75;1.75;;;;;19.25;48.77;98278.22;6403839;22;45128;-74
2021/12/10 05:55:09;;;;;;;;;3.50;2.25;;;;;19.38;49.88;98285.28;6404098;22;46682;-74
2021/12/10 05:57:34;;;;;;;;;4.50;2.00;;;;;19.46;49.84;98271.53;6403855;22;61012;-74
2021/12/10 06:00:00;;;;;;;;;3.25;1.75;;;;;19.55;49.86;98278.88;6403356;22;45219;-76
2021/12/10 06:02:25;;;;;;;;;2.50;2.50;;;;;19.64;49.90;98291.50;6375650;22;62852;-75
2021/12/10 06:04:50;;;;;;;;;3.00;2.25;;;;;19.71;49.99;98292.75;6376623;22;45284;-75
2021/12/10 06:07:16;;;;;;;;;2.00;2.00;;;;;19.76;49.76;98295.97;6402352;22;55117;-75
2021/12/10 06:09:41;;;;;;;;;2.00;1.00;;;;;19.83;51.40;98304.34;6350983;22;62725;-70
2021/12/10 06:12:07;;;;;;;;;2.00;2.00;;;;;19.90;51.63;98304.78;6403184;22;45353;-76
2021/12/10 06:14:32;;;;;;;;;2.00;1.00;;;;;19.95;52.38;98307.94;6377391;22;45475;-71
2021/12/10 06:16:58;;;;;;;;;5.00;2.25;;;;;20.01;52.61;98316.34;6404122;22;58970;-72
2021/12/10 06:19:23;;;;;;;;;3.50;3.00;;;;;20.07;52.89;98323.03;6378080;22;45316;-73
2021/12/10 06:21:49;;;;;;;;;5.25;2.25;;;;;20.13;53.11;98305.84;6406376;22;45359;-72
2021/12/10 06:24:18;;;;;;;;;2.50;2.00;;;;;20.19;53.56;98324.81;6377804;22;46472;-77
2021/12/10 06:26:43;;;;;;;;;6.00;1.25;;;;;20.23;53.66;98331.59;6378275;22;45195;-74
2021/12/10 06:29:09;;;;;;;;;7.00;4.50;;;;;20.29;54.04;98335.63;6377204;22;64019;-78
2021/12/10 06:31:34;;;;;;;;;7.75;5.00;;;;;20.29;54.16;98323.22;6377986;22;45121;-75
2021/12/10 06:33:59;;;;;;;;;4.00;4.00;;;;;20.37;53.84;98332.44;6404179;22;71871;-82
2021/12/10 06:36:31;;;;;;;;;5.25;3.25;;;;;20.40;53.92;98348.13;6408126;22;44635;-78
2021/12/10 06:38:57;;;;;;;;;2.75;2.75;;;;;20.42;53.79;98348.88;6406637;22;45156;-77
2021/12/10 06:41:22;;;;;;;;;4.25;3.00;;;;;20.44;53.29;98349.66;6405521;22;45183;-78
2021/12/10 06:44:14;;;;;;;;;2.75;2.75;;;;;20.40;52.80;98354.28;6403631;22;48103;-77
2021/12/10 06:46:48;;;;;;;;;4.00;3.75;;;;;20.44;52.34;98354.97;6368715;22;45307;-78
2021/12/10 06:49:14;;;;;;;;;5.00;3.00;;;;;20.41;52.50;98371.00;6377403;22;45265;-78
2021/12/10 06:51:42;;;;;;;;;5.00;3.50;;;;;20.46;52.30;98371.59;6404479;22;45299;-76
2021/12/10 06:54:07;;;;;;;;;4.00;2.00;;;;;20.47;52.01;98381.22;6403742;22;46455;-77
2021/12/10 06:56:36;;;;;;;;;3.25;3.00;;;;;20.46;52.09;98390.97;6395692;22;45395;-77
2021/12/10 06:59:06;;;;;;;;;4.00;2.50;;;;;20.44;52.06;98392.91;6377741;22;45285;-85
2021/12/10 07:01:34;;;;;;;;;4.25;3.25;;;;;20.47;51.85;98407.72;6404107;22;45157;-79
2021/12/10 07:04:00;;;;;;;;;4.25;2.00;;;;;20.46;51.85;98400.72;6377316;22;48052;-79
2021/12/10 07:06:28;;;;;;;;;5.00;3.75;;;;;20.47;51.86;98416.53;6404561;22;45570;-78
2021/12/10 07:08:55;;;;;;;;;6.50;4.00;;;;;20.48;51.60;98414.72;6404864;22;45329;-77
2021/12/10 07:11:20;;;;;;;;;6.50;4.50;;;;;20.44;50.83;98421.19;6373377;22;45442;-78
2021/12/10 07:13:50;;;;;;;;;8.25;4.50;;;;;20.45;50.44;98434.34;6403940;22;46575;-77
2021/12/10 07:16:17;;;;;;;;;4.50;3.75;;;;;20.45;49.88;98452.03;6377698;22;45695;-76
2021/12/10 07:18:43;;;;;;;;;7.00;5.00;;;;;20.43;49.32;98464.50;6377623;22;45384;-77
2021/12/10 07:21:08;;;;;;;;;8.00;5.00;;;;;20.42;49.29;98468.13;6377452;22;45358;-78
2021/12/10 07:23:36;;;;;;;;;9.75;6.00;;;;;20.40;49.13;98476.13;6405834;22;46071;-77
2021/12/10 07:26:04;;;;;;;;;8.25;6.75;;;;;20.40;49.11;98477.94;6406114;22;45170;-76
2021/12/10 07:28:30;;;;;;;;;7.25;6.25;;;;;20.40;48.96;98500.00;6378831;22;45224;-76
2021/12/10 07:30:56;;;;;;;;;6.00;4.25;;;;;20.42;49.13;98500.75;6406818;22;45413;-76
2021/12/10 07:33:21;;;;;;;;;5.50;5.50;;;;;20.42;48.97;98498.09;6403819;22;57107;-76
2021/12/10 07:35:47;;;;;;;;;9.25;6.75;;;;;20.42;49.27;98491.97;6376919;22;45252;-76
2021/12/10 07:38:12;;;;;;;;;11.50;7.00;;;;;20.43;49.57;98513.09;6377916;22;45286;-77
2021/12/10 07:40:38;;;;;;;;;4.75;4.75;;;;;20.44;49.61;98530.69;6377525;22;53125;-76
2021/12/10 07:43:04;;;;;;;;;6.50;5.00;;;;;20.44;49.61;98527.19;6376655;22;47692;-77
2021/12/10 07:45:30;;;;;;;;;4.75;4.00;;;;;20.44;49.64;98546.56;6406070;22;45237;-77
2021/12/10 07:47:57;;;;;;;;;5.00;4.00;;;;;20.45;49.65;98545.63;6375940;22;45141;-77
2021/12/10 07:50:32;;;;;;;;;7.00;4.50;;;;;20.44;49.58;98535.97;6404460;22;45207;-76
2021/12/10 07:52:57;;;;;;;;;7.25;6.00;;;;;20.46;49.44;98552.59;6378771;22;47503;-78
2021/12/10 07:55:38;;;;;;;;;5.00;3.00;;;;;20.40;49.65;98537.06;6405341;22;49593;-78
2021/12/10 07:58:05;;;;;;;;;6.50;5.25;;;;;20.48;50.21;98568.41;6270335;22;45351;-78
2021/12/10 08:00:32;;;;;;;;;5.50;5.00;;;;;20.49;49.82;98570.09;6283616;22;45430;-78
2021/12/10 08:02:57;;;;;;;;;6.25;6.00;;;;;20.49;50.51;98565.66;6281769;22;46379;-78
2021/12/10 08:05:23;;;;;;;;;6.00;4.50;;;;;20.50;50.76;98575.31;6255631;22;62007;-77
2021/12/10 08:07:49;;;;;;;;;5.25;5.25;;;;;20.53;51.17;98590.16;6257360;22;45280;-82
2021/12/10 08:10:15;;;;;;;;;5.75;4.00;;;;;20.52;51.19;98599.91;6250981;22;45286;-78
2021/12/10 08:12:43;;;;;;;;;4.25;3.50;;;;;20.55;51.12;98596.19;6251032;22;47098;-78
2021/12/10 08:15:09;;;;;;;;;4.75;4.50;;;;;20.59;50.82;98601.22;6255533;22;45231;-76
2021/12/10 08:17:44;;;;;;;;;4.50;4.50;;;;;20.64;51.02;98616.78;6255763;22;45311;-76
2021/12/10 08:20:12;;;;;;;;;4.75;4.75;;;;;20.67;50.84;98616.59;6255191;22;45341;-77
2021/12/10 08:22:40;;;;;;;;;6.00;4.75;;;;;20.70;50.20;98628.81;6251122;22;45921;-77
2021/12/10 08:25:09;;;;;;;;;3.75;3.75;;;;;20.72;50.09;98630.41;6252654;22;45968;-77
2021/12/10 08:27:37;;;;;;;;;5.00;5.00;;;;;20.75;49.77;98637.28;6254936;22;45447;-77
2021/12/10 08:30:07;;;;;;;;;4.75;4.00;;;;;20.76;49.83;98641.63;6377173;22;45770;-78
2021/12/10 08:32:32;;;;;;;;;8.00;4.25;;;;;20.78;49.44;98651.22;6350925;22;45621;-77
2021/12/10 08:34:58;;;;;;;;;6.00;3.00;;;;;20.80;48.85;98665.22;6349729;22;45737;-77
2021/12/10 08:37:24;;;;;;;;;5.00;4.00;;;;;20.81;49.03;98656.31;6350407;22;45332;-77
2021/12/10 08:39:50;;;;;;;;;5.50;5.00;;;;;20.82;48.81;98665.09;6323233;22;54541;-77
2021/12/10 08:42:17;;;;;;;;;3.75;3.00;;;;;20.84;48.48;98673.81;6323909;22;47470;-77
2021/12/10 08:44:43;;;;;;;;;5.50;5.50;;;;;20.84;48.37;98677.31;6324144;22;45195;-77
2021/12/10 08:47:12;;;;;;;;;3.00;3.00;;;;;20.83;48.21;98682.72;6323933;22;45549;-75
2021/12/10 08:49:38;;;;;;;;;5.50;5.00;;;;;20.86;48.24;98678.06;6324153;22;45704;-75
2021/12/10 08:52:04;;;;;;;;;6.00;4.25;;;;;20.89;48.54;98698.22;6350643;22;46182;-75
2021/12/10 08:54:30;;;;;;;;;4.00;4.00;;;;;20.89;48.17;98699.06;6349588;22;45311;-75
2021/12/10 08:56:56;;;;;;;;;4.00;4.00;;;;;20.94;48.31;98703.22;6339651;22;45419;-74
2021/12/10 08:59:24;;;;;;;;;5.00;5.00;;;;;20.97;48.41;98708.34;6382326;22;45193;-75
2021/12/10 09:01:52;;;;;;;;;6.25;6.00;;;;;20.99;48.32;98706.44;6409789;22;47199;-74
2021/12/10 09:04:25;;;;;;;;;6.00;6.00;;;;;21.02;48.30;98716.81;6388588;22;45273;-74
2021/12/10 09:07:02;;;;;;;;;4.25;4.00;;;;;21.04;48.22;98720.25;6386198;22;45176;-75
2021/12/10 09:09:30;;;;;;;;;7.25;6.00;;;;;21.05;48.59;98727.25;6384572;22;45263;-73
2021/12/10 09:12:09;;;;;;;;;7.50;5.50;;;;;21.01;48.21;98710.66;6410352;22;45273;-75
2021/12/10 09:14:44;;;;;;;;;6.00;5.25;;;;;21.03;48.52;98721.19;6386338;22;45491;-74
2021/12/10 09:17:10;;;;;;;;;4.75;4.75;;;;;21.05;47.92;98720.13;6386321;22;45377;-75
2021/12/10 09:19:44;;;;;;;;;11.25;8.00;;;;;21.11;48.50;98737.44;6383068;22;45567;-75
2021/12/10 09:22:10;;;;;;;;;5.00;5.00;;;;;21.15;48.54;98749.56;6408235;22;47752;-74
2021/12/10 09:24:36;;;;;;;;;6.50;5.50;;;;;21.17;48.14;98753.81;6382485;22;45219;-74
2021/12/10 09:27:05;;;;;;;;;8.00;5.50;;;;;21.21;48.38;98759.78;6409086;22;45316;-76
2021/12/10 09:29:35;;;;;;;;;5.00;5.00;;;;;21.24;48.24;98766.66;6409335;22;45297;-75
2021/12/10 09:32:01;;;;;;;;;8.75;6.50;;;;;21.22;48.38;98758.81;6382188;22;47158;-74
2021/12/10 09:34:26;;;;;;;;;5.00;4.75;;;;;21.23;48.37;98767.63;6354728;22;45223;-74
2021/12/10 09:36:52;;;;;;;;;8.75;6.25;;;;;21.22;48.33;98776.53;6381408;22;45862;-74
2021/12/10 09:39:18;;;;;;;;;7.25;6.00;;;;;21.22;48.35;98771.22;6381202;22;45256;-74
2021/12/10 09:41:43;;;;;;;;;9.25;8.00;;;;;21.22;48.30;98782.69;6408192;22;45787;-74
2021/12/10 09:44:09;;;;;;;;;7.50;6.50;;;;;21.21;48.05;98790.75;6378829;22;45300;-76
2021/12/10 09:46:38;;;;;;;;;9.75;6.75;;;;;21.21;47.84;98791.59;6381272;22;45256;-75
2021/12/10 09:49:13;;;;;;;;;8.00;8.00;;;;;21.21;48.16;98796.06;6387784;22;45238;-76
2021/12/10 09:51:57;;;;;;;;;8.00;6.00;;;;;21.20;48.24;98802.28;6394433;22;46480;-75
2021/12/10 09:54:24;;;;;;;;;7.25;7.25;;;;;21.18;47.86;98805.06;6381774;22;45176;-75
2021/12/10 09:57:18;;;;;;;;;7.50;7.00;;;;;21.20;48.05;98813.78;6409969;22;45306;-75
2021/12/10 09:59:44;;;;;;;;;8.50;6.75;;;;;21.20;47.94;98811.13;6385312;22;45401;-75
2021/12/10 10:02:10;;;;;;;;;7.25;7.25;;;;;21.20;48.11;98821.75;6438944;22;46201;-76
2021/12/10 10:04:37;;;;;;;;;5.00;4.25;;;;;21.18;47.93;98813.88;6439027;22;45250;-76
2021/12/10 10:07:07;;;;;;;;;5.75;5.00;;;;;21.21;48.08;98814.63;6422113;22;45902;-75
2021/12/10 10:09:33;;;;;;;;;8.25;6.50;;;;;21.22;47.88;98816.34;6423605;22;45692;-76
2021/12/10 10:12:03;;;;;;;;;6.25;5.25;;;;;21.23;47.59;98821.53;6436089;22;55203;-76
2021/12/10 10:14:28;;;;;;;;;7.50;7.50;;;;;21.23;47.64;98826.84;6438989;22;45203;-76
2021/12/10 10:16:54;;;;;;;;;6.00;6.00;;;;;21.23;47.36;98829.50;6433574;22;66377;-76
2021/12/10 10:19:19;;;;;;;;;6.50;5.00;;;;;21.24;47.50;98833.84;6409489;22;45570;-75
2021/12/10 10:21:50;;;;;;;;;6.00;5.00;;;;;21.24;47.26;98838.31;6438004;22;45984;-76
2021/12/10 10:24:16;;;;;;;;;5.00;5.00;;;;;21.26;47.31;98850.50;6410182;22;45324;-75
2021/12/10 10:26:46;;;;;;;;;8.75;7.00;;;;;21.28;47.29;98845.97;6438802;22;45365;-76
2021/12/10 10:29:14;;;;;;;;;4.50;4.50;;;;;21.27;47.21;98838.13;6409766;22;45471;-76
2021/12/10 10:31:49;;;;;;;;;5.00;4.50;;;;;21.29;47.33;98852.16;6438504;22;45255;-76
2021/12/10 10:34:15;;;;;;;;;6.00;5.00;;;;;21.28;47.23;98874.31;6409183;22;45183;-76
2021/12/10 10:36:43;;;;;;;;;6.50;5.00;;;;;21.27;47.05;98860.19;6409079;22;60739;-76
2021/12/10 10:39:14;;;;;;;;;7.00;5.25;;;;;21.29;47.31;98876.06;6410689;22;45334;-76
2021/12/10 10:41:40;;;;;;;;;7.00;6.00;;;;;21.28;46.92;98872.50;6410181;22;46045;-76
2021/12/10 10:44:06;;;;;;;;;7.75;5.00;;;;;21.26;47.16;98882.34;6382882;22;45226;-76
2021/12/10 10:46:31;;;;;;;;;6.75;6.50;;;;;21.27;47.19;98878.78;6385023;22;45244;-76
2021/12/10 10:48:57;;;;;;;;;7.00;5.50;;;;;21.26;46.87;98895.63;6390821;22;45444;-79
2021/12/10 10:51:37;;;;;;;;;7.00;4.50;;;;;21.26;47.17;98878.84;6438583;22;45816;-74
2021/12/10 10:54:06;;;;;;;;;10.25;6.25;;;;;21.26;47.68;98895.63;6388700;22;45240;-69
2021/12/10 10:56:45;;;;;;;;;5.25;5.00;;;;;21.27;47.62;98891.19;6388946;22;45427;-72
2021/12/10 10:59:22;;;;;;;;;6.50;5.25;;;;;21.28;47.79;98891.09;6414376;22;45190;-72
2021/12/10 11:01:57;;;;;;;;;4.50;4.00;;;;;21.29;47.53;98902.59;6388352;22;45221;-73
2021/12/10 11:04:31;;;;;;;;;5.00;3.75;;;;;21.29;47.36;98897.28;6422368;22;45218;-74
2021/12/10 11:07:04;;;;;;;;;7.75;4.00;;;;;21.27;47.63;98900.00;6414109;22;45723;-75
2021/12/10 11:09:30;;;;;;;;;3.00;3.00;;;;;21.27;47.53;98910.63;6410634;22;45365;-75
2021/12/10 11:11:58;;;;;;;;;3.50;3.50;;;;;21.27;47.57;98910.63;6382146;22;48675;-75
2021/12/10 11:14:51;;;;;;;;;4.25;3.50;;;;;21.27;47.76;98921.22;6382539;22;45248;-75
2021/12/10 11:17:37;;;;;;;;;5.00;5.00;;;;;21.27;47.68;98926.53;6385111;22;45182;-77
2021/12/10 11:20:18;;;;;;;;;5.00;3.75;;;;;21.25;48.07;98931.06;6382250;22;45427;-74
2021/12/10 11:22:55;;;;;;;;;5.50;5.50;;;;;21.25;47.68;98949.63;6382891;22;45787;-74
2021/12/10 11:25:25;;;;;;;;;5.25;5.25;;;;;21.24;47.51;98934.66;6437368;22;45343;-74
2021/12/10 11:27:51;;;;;;;;;5.25;2.75;;;;;21.23;48.16;98946.22;6409965;22;45373;-74
2021/12/10 11:30:18;;;;;;;;;5.25;4.00;;;;;21.23;48.09;98942.72;6382584;22;45253;-75
2021/12/10 11:33:09;;;;;;;;;6.25;5.00;;;;;21.23;47.93;98951.53;6408536;22;47238;-75
2021/12/10 11:35:39;;;;;;;;;4.25;4.25;;;;;21.22;47.95;98951.66;6386446;22;45271;-75
2021/12/10 11:38:16;;;;;;;;;5.25;5.25;;;;;21.21;47.89;98961.41;6410016;22;45284;-76
2021/12/10 11:40:48;;;;;;;;;4.75;4.75;;;;;21.21;47.91;98960.56;6384143;22;45285;-74
2021/12/10 11:49:40;;;;;;;;;3.00;3.00;;;;;21.21;47.94;98976.47;6404774;22;45214;-75
2021/12/10 11:52:39;;;;;;;;;;;;;;;;;;;;;
2021/12/10 11:55:09;;;;;;;;;4.75;4.75;;;;;21.18;47.75;98969.53;6433907;22;75595;-75
2021/12/10 11:57:50;;;;;;;;;5.00;5.00;;;;;21.14;47.67;98960.09;6353854;22;45376;-75
2021/12/10 12:00:34;;;;;;;;;6.75;4.50;;;;;21.15;47.81;98980.34;6411646;22;45261;-75
2021/12/10 12:03:10;;;;;;;;;6.25;5.00;;;;;21.17;47.88;98989.06;6384341;22;45507;-73
2021/12/10 12:06:05;;;;;;;;;6.75;5.75;;;;;21.14;47.36;98990.13;6356570;22;46782;-77
2021/12/10 12:09:16;;;;;;;;;;;;;;;;;;;;;
2021/12/10 12:12:37;;;;;;;;;11.25;11.00;;;;;21.17;48.58;99020.91;6422504;22;69242;-75
2021/12/10 12:36:14;;;;;;;;;8.75;7.50;;;;;21.14;48.59;99027.25;6270000;22;45389;-83
2021/12/10 12:43:14;;;;;;;;;7.50;7.25;;;;;21.14;48.31;99035.22;6124571;23;45502;-77
2021/12/10 12:49:33;;;;;;;;;9.50;8.25;;;;;21.26;48.09;99061.94;6074126;23;45227;-78
2021/12/10 12:55:45;;;;;;;;;;;;;;;;;;;;;
2021/12/10 13:01:55;;;;;;;;;7.25;6.00;;;;;21.22;47.87;99079.00;6042300;23;45490;-79
2021/12/10 13:04:51;;;;;;;;;9.50;6.25;;;;;21.26;47.65;99089.31;6088804;23;45677;-78
2021/12/10 13:07:51;;;;;;;;;8.00;6.75;;;;;21.24;47.76;99091.22;6134410;23;45785;-79
2021/12/10 13:10:40;;;;;;;;;;;;;;;;;;;;;
2021/12/10 13:13:24;;;;;;;;;;;;;;;;;;;;;
2021/12/10 13:16:12;;;;;;;;;8.50;7.25;;;;;21.26;47.40;99096.44;6138671;23;69474;-77
2021/12/10 13:22:14;;;;;;;;;6.75;6.75;;;;;21.26;47.76;99115.84;6351231;22;45579;-76
2021/12/10 13:28:15;;;;;;;;;10.00;8.25;;;;;21.25;47.39;99116.81;6344110;22;45374;-76
2021/12/10 13:31:14;;;;;;;;;11.25;6.75;;;;;21.31;47.81;99118.28;6318012;22;45299;-83
2021/12/10 13:33:40;;;;;;;;;7.75;7.00;;;;;21.24;48.26;99107.13;6348352;22;46887;-80
2021/12/10 13:36:28;;;;;;;;;;;;;;;;;;;;;
2021/12/10 13:39:42;;;;;;;;;7.50;6.00;;;;;21.30;47.75;99120.06;6350216;22;68128;-79
2021/12/10 13:42:13;;;;;;;;;7.00;7.00;;;;;21.28;48.01;99134.34;6268957;22;45312;-77
2021/12/10 13:48:00;;;;;;;;;7.75;6.75;;;;;21.31;47.82;99139.50;6268331;22;45367;-80
2021/12/10 13:51:17;;;;;;;;;7.25;6.00;;;;;21.34;47.41;99150.78;6313249;22;45383;-79
2021/12/10 13:57:20;;;;;;;;;11.00;7.00;;;;;21.39;46.81;99150.50;6248648;22;45313;-79
2021/12/10 14:00:17;;;;;;;;;6.25;6.25;;;;;21.47;46.83;99180.09;6275993;22;45281;-79
2021/12/10 14:03:22;;;;;;;;;9.25;7.00;;;;;21.44;47.12;99174.97;6335873;22;45259;-79
2021/12/10 14:06:37;;;;;;;;;6.00;5.50;;;;;21.38;47.04;99178.00;6404218;22;45417;-79
2021/12/10 14:09:59;;;;;;;;;11.25;6.75;;;;;21.40;46.90;99184.06;6356803;22;45338;-79
2021/12/10 14:12:42;;;;;;;;;7.00;7.00;;;;;21.43;46.76;99198.00;6164810;22;45181;-80
2021/12/10 14:16:04;;;;;;;;;7.50;7.00;;;;;21.47;46.81;99213.75;6245659;22;45280;-78
2021/12/10 14:18:32;;;;;;;;;9.50;8.25;;;;;21.41;47.01;99207.84;6258673;22;45279;-81
2021/12/10 14:21:30;;;;;;;;;;;;;;;;;;;;;
2021/12/10 14:23:59;;;;;;;;;8.50;7.25;;;;;21.37;47.27;99209.00;6365026;22;72590;-80
2021/12/10 14:30:09;;;;;;;;;6.25;6.25;;;;;21.37;46.89;99229.34;6268180;22;45153;-80
2021/12/10 14:33:09;;;;;;;;;;;;;;;;;;;;;
2021/12/10 14:39:57;;;;;;;;;6.50;5.50;;;;;21.30;47.01;99239.50;6380396;22;45197;-79
2021/12/10 14:42:48;;;;;;;;;6.00;5.50;;;;;21.33;46.86;99262.34;6405220;22;45188;-79
2021/12/10 14:45:22;;;;;;;;;7.00;5.75;;;;;21.32;46.55;99266.78;6340576;22;45396;-79
2021/12/10 14:51:41;;;;;;;;;8.00;6.50;;;;;21.27;46.66;99271.50;6332869;22;45513;-79
2021/12/10 14:54:43;;;;;;;;;;;;;;;;;;;;;
2021/12/10 14:57:33;;;;;;;;;10.00;8.25;;;;;21.29;46.67;99287.34;6374627;22;76665;-79
2021/12/10 15:03:46;;;;;;;;;6.75;5.75;;;;;21.24;46.56;99298.19;6429667;22;45214;-80
2021/12/10 15:06:32;;;;;;;;;9.75;5.75;;;;;21.25;46.31;99291.94;6384115;22;45177;-79
2021/12/10 15:09:07;;;;;;;;;9.25;6.25;;;;;21.23;46.48;99301.78;6380233;22;46108;-77
2021/12/10 15:15:25;;;;;;;;;9.50;6.00;;;;;21.18;46.43;99314.44;6275917;22;45283;-80
2021/12/10 15:18:23;;;;;;;;;4.50;4.50;;;;;21.22;46.42;99308.03;6271083;22;45388;-80
2021/12/10 15:25:16;;;;;;;;;;;;;;;;;;;;;
2021/12/10 15:27:45;;;;;;;;;6.25;5.00;;;;;21.17;46.39;99337.47;6307145;22;45288;-79
2021/12/10 15:30:39;;;;;;;;;8.00;7.25;;;;;21.18;46.63;99339.19;6409857;22;45186;-81
2021/12/10 15:33:09;;;;;;;;;7.00;5.75;;;;;21.21;46.42;99353.25;6353857;22;45564;-78
2021/12/10 15:35:45;;;;;;;;;7.75;6.25;;;;;21.14;46.31;99347.41;6382940;22;45198;-79
2021/12/10 15:38:35;;;;;;;;;4.25;4.25;;;;;21.20;46.28;99365.66;6357969;22;45749;-78
2021/12/10 15:41:24;;;;;;;;;9.50;7.50;;;;;21.20;46.21;99365.66;6411540;22;45397;-80
2021/12/10 15:44:21;;;;;;;;;9.50;7.50;;;;;21.10;46.36;99367.09;6408817;22;47022;-77
2021/12/10 15:47:13;;;;;;;;;6.00;6.00;;;;;21.14;46.26;99372.16;6410431;22;45305;-77
2021/12/10 15:49:46;;;;;;;;;8.25;7.00;;;;;21.17;46.30;99389.69;6359783;22;45121;-79
2021/12/10 15:56:01;;;;;;;;;;;;;;;;;;;;;
2021/12/10 15:58:38;;;;;;;;;7.00;6.00;;;;;21.14;47.03;99397.81;6370382;22;73585;-76
2021/12/10 16:01:27;;;;;;;;;7.50;6.00;;;;;21.18;46.90;99412.63;6378705;22;45431;-77
2021/12/10 16:04:25;;;;;;;;;7.75;6.00;;;;;21.18;47.82;99415.28;6403292;22;45115;-73
2021/12/10 16:07:05;;;;;;;;;7.25;7.25;;;;;21.22;47.19;99416.81;6380438;22;47331;-74
2021/12/10 16:13:16;;;;;;;;;;;;;;;;;;;;;
2021/12/10 16:16:04;;;;;;;;;9.00;7.00;;;;;21.25;46.37;99439.69;6389065;22;72012;-74
2021/12/10 16:18:34;;;;;;;;;7.75;7.25;;;;;21.17;46.21;99426.81;6385906;22;46683;-74
2021/12/10 16:22:29;;;;;;;;;6.25;6.00;;;;;21.22;46.02;99446.03;6383957;22;45281;-73
2021/12/10 16:25:41;;;;;;;;;;;;;;;;;;;;;
2021/12/10 16:50:10;;;;;;;;;10.75;7.50;;;;;21.09;45.44;99488.25;6026651;23;45423;-75
2021/12/10 16:53:20;;;;;;;;;7.25;6.00;;;;;21.07;45.32;99487.50;6004084;23;45331;-76
2021/12/10 16:56:39;;;;;;;;;7.00;6.00;;;;;21.07;45.05;99489.28;6035543;23;45294;-74
2021/12/10 16:59:28;;;;;;;;;;;;;;;;;;;;;
2021/12/10 17:02:49;;;;;;;;;;;;;;;;;;;;;
2021/12/10 17:08:53;;;;;;;;;5.00;4.25;;;;;21.11;45.10;99518.25;6134035;22;45505;-75
2021/12/10 17:14:49;;;;;;;;;3.75;3.00;;;;;21.05;44.92;99525.66;6233271;22;45575;-75
2021/12/10 17:18:22;;;;;;;;;;;;;;;;;;;;;
2021/12/10 17:21:30;;;;;;;;;6.50;6.25;;;;;21.09;44.77;99546.63;6183290;22;74195;-73
2021/12/10 17:24:42;;;;;;;;;7.00;5.50;;;;;21.01;44.94;99542.66;6405301;22;45366;-74
2021/12/10 17:27:29;;;;;;;;;7.00;6.00;;;;;21.02;44.75;99555.84;6407876;22;45367;-75
2021/12/10 17:30:08;;;;;;;;;6.25;6.00;;;;;21.07;44.74;99569.75;6386478;22;45321;-74
2021/12/10 17:32:33;;;;;;;;;7.00;6.25;;;;;21.06;44.82;99576.00;6359939;22;45177;-73
2021/12/10 17:35:11;;;;;;;;;3.25;3.25;;;;;21.04;44.98;99574.38;6381742;22;47024;-72
2021/12/10 17:37:37;;;;;;;;;6.25;6.00;;;;;21.10;44.99;99584.63;6388206;22;45384;-73
2021/12/10 17:40:13;;;;;;;;;5.00;5.00;;;;;21.10;45.11;99589.94;6381791;22;45455;-78
2021/12/10 17:42:38;;;;;;;;;5.75;5.75;;;;;21.10;45.84;99588.13;6382674;22;45542;-82
2021/12/10 17:45:08;;;;;;;;;9.00;4.75;;;;;21.14;45.99;99602.97;6355224;22;46592;-76
2021/12/10 17:47:36;;;;;;;;;5.25;4.75;;;;;21.16;46.14;99600.25;6381869;22;45166;-80
2021/12/10 17:50:12;;;;;;;;;5.50;5.50;;;;;21.15;46.14;99609.13;6382340;22;45441;-75
2021/12/10 17:52:38;;;;;;;;;7.75;6.25;;;;;21.20;46.58;99612.41;6383634;22;45420;-80
2021/12/10 17:55:11;;;;;;;;;7.25;5.00;;;;;21.22;46.43;99626.47;6437674;22;45350;-74
2021/12/10 17:57:43;;;;;;;;;6.50;6.00;;;;;21.25;45.99;99638.69;6436976;22;45272;-75
2021/12/10 18:00:32;;;;;;;;;7.25;6.25;;;;;21.26;46.15;99638.63;6410057;22;45175;-76
2021/12/10 18:03:02;;;;;;;;;7.00;5.25;;;;;21.27;46.29;99648.31;6437530;22;45293;-74
2021/12/10 18:05:28;;;;;;;;;6.00;5.50;;;;;21.26;45.81;99633.31;6408241;22;46943;-89
2021/12/10 18:07:56;;;;;;;;;8.00;7.00;;;;;21.31;46.14;99649.03;6377231;22;46080;-76
2021/12/10 18:10:26;;;;;;;;;9.50;5.50;;;;;21.32;45.79;99656.91;6368026;22;45250;-75